Time;durP1;ratioP1;P1;durP2;ratioP2;P2;SDS_P1;SDS_P2;PMS_P1;PMS_P2;Temp;Humidity;BMP_temperature;BMP_pressure;BME280_temperature;BME280_humidity;BME280_pressure;Samples;Min_cycle;Max_cycle;Signal;HPM_P1;HPM_P2
2022/01/13 00:00:34;;;;;;;20.00;15.50;;;;;;102022.36;;;;106502;1299;65252;-41
2022/01/13 00:03:16;;;;;;;22.80;15.40;;;;;;102030.27;;;;106461;1299;62730;-42
2022/01/13 00:05:43;;;;;;;20.90;16.10;;;;;;102031.67;;;;106461;1299;62619;-42
2022/01/13 00:08:11;;;;;;;21.70;15.70;;;;;;102029.05;;;;106482;1300;62671;-48
2022/01/13 00:10:38;;;;;;;21.10;15.90;;;;;;102025.85;;;;106492;1300;62628;-48
2022/01/13 00:13:08;;;;;;;22.00;15.10;;;;;;102023.42;;;;106439;1299;64429;-37
2022/01/13 00:18:12;;;;;;;20.00;14.50;;;;;;102007.26;;;;106435;1300;62709;-48
2022/01/13 00:21:11;;;;;;;21.20;14.80;;;;;;102007.49;;;;106463;1300;62628;-48
2022/01/13 00:23:47;;;;;;;20.00;14.90;;;;;;102001.47;;;;106493;1299;62555;-48
2022/01/13 00:26:22;;;;;;;21.10;13.70;;;;;;101995.98;;;;106476;1298;67400;-48
2022/01/13 00:28:51;;;;;;;22.10;14.20;;;;;;102005.56;;;;106452;1299;62912;-48
2022/01/13 00:31:26;;;;;;;19.50;13.90;;;;;;102002.77;;;;106316;1299;62611;-37
2022/01/13 00:33:55;;;;;;;20.20;14.30;;;;;;101992.91;;;;106473;1300;62507;-48
2022/01/13 00:36:29;;;;;;;19.60;14.30;;;;;;101993.41;;;;106454;1299;62652;-45
2022/01/13 00:38:58;;;;;;;20.80;13.70;;;;;;101985.04;;;;106471;1298;66072;-37
2022/01/13 00:41:29;;;;;;;18.30;14.20;;;;;;101975.36;;;;106429;1300;62738;-47
2022/01/13 00:44:01;;;;;;;19.30;14.20;;;;;;101968.73;;;;106473;1299;62459;-48
2022/01/13 00:46:40;;;;;;;20.10;14.60;;;;;;101964.70;;;;106443;1300;62630;-37
2022/01/13 00:49:10;;;;;;;18.80;13.60;;;;;;101959.23;;;;106489;1299;62615;-37
2022/01/13 00:51:37;;;;;;;18.60;12.30;;;;;;101963.70;;;;106496;1298;66474;-34
2022/01/13 00:54:07;;;;;;;17.90;12.90;;;;;;101952.65;;;;106438;1299;62560;-35
2022/01/13 00:56:38;;;;;;;19.70;13.20;;;;;;101948.70;;;;106483;1299;62572;-37
2022/01/13 00:59:09;;;;;;;19.80;13.10;;;;;;101987.27;;;;106466;1299;62700;-37
2022/01/13 01:01:47;;;;;;;18.30;12.90;;;;;;102003.40;;;;106483;1298;62554;-48
2022/01/13 01:04:14;;;;;;;19.70;13.90;;;;;;102023.95;;;;106218;1299;68589;-50
2022/01/13 01:06:46;;;;;;;18.70;12.80;;;;;;102015.08;;;;106463;1299;62593;-48
2022/01/13 01:09:17;;;;;;;18.30;13.50;;;;;;101980.56;;;;106475;1300;62565;-48
2022/01/13 01:11:47;;;;;;;18.70;12.90;;;;;;101943.17;;;;106493;1297;62616;-48
2022/01/13 01:14:16;;;;;;;17.90;13.40;;;;;;101930.80;;;;106470;1298;62599;-48
2022/01/13 01:16:44;;;;;;;19.10;12.80;;;;;;101928.20;;;;106473;1299;64896;-48
2022/01/13 01:19:14;;;;;;;20.20;14.00;;;;;;101911.20;;;;106429;1298;62534;-48
2022/01/13 01:24:27;;;;;;;18.20;12.40;;;;;;101910.58;;;;106440;1300;62646;-33
2022/01/13 01:27:02;;;;;;;18.50;12.20;;;;;;101906.65;;;;106473;1299;62611;-49
2022/01/13 01:30:27;;;;;;;17.70;11.80;;;;;;101901.62;;;;106459;1299;67439;-48
2022/01/13 01:32:20;;;;;;;18.30;12.10;;;;;;101908.26;;;;106421;1298;62524;-48
2022/01/13 01:34:58;;;;;;;16.80;11.80;;;;;;101915.52;;;;106459;1298;62569;-48
2022/01/13 01:37:30;;;;;;;19.20;12.80;;;;;;101922.45;;;;106437;1300;62639;-48
2022/01/13 01:39:59;;;;;;;17.80;12.30;;;;;;101927.09;;;;106444;1299;62585;-37
2022/01/13 01:42:28;;;;;;;16.10;11.80;;;;;;101928.39;;;;106432;1299;66502;-48
2022/01/13 01:44:58;;;;;;;17.80;12.20;;;;;;101942.68;;;;106427;1299;62601;-48
2022/01/13 01:47:30;;;;;;;19.00;11.90;;;;;;101952.04;;;;106473;1298;62573;-36
2022/01/13 01:50:09;;;;;;;16.90;12.00;;;;;;101951.50;;;;106441;1298;62538;-36
2022/01/13 01:52:39;;;;;;;16.30;11.40;;;;;;101940.41;;;;106461;1298;62662;-48
2022/01/13 01:55:08;;;;;;;17.10;12.10;;;;;;101925.29;;;;106482;1299;67428;-41
2022/01/13 01:57:38;;;;;;;16.60;11.10;;;;;;101911.40;;;;106455;1299;62620;-37
2022/01/13 02:00:11;;;;;;;15.60;11.20;;;;;;101908.94;;;;106454;1299;62634;-40
2022/01/13 02:02:40;;;;;;;17.40;11.60;;;;;;101919.89;;;;106345;1302;62757;-49
2022/01/13 02:05:07;;;;;;;16.40;11.30;;;;;;101929.32;;;;106443;1299;62678;-42
2022/01/13 02:07:36;;;;;;;18.30;11.80;;;;;;101931.92;;;;106467;1299;66269;-42
2022/01/13 02:10:05;;;;;;;16.40;11.00;;;;;;101932.63;;;;106432;1298;62549;-41
2022/01/13 02:12:40;;;;;;;17.20;11.70;;;;;;101935.12;;;;106448;1299;62539;-34
2022/01/13 02:17:42;;;;;;;16.60;10.70;;;;;;101932.45;;;;106444;1299;62509;-37
2022/01/13 02:20:16;;;;;;;15.00;10.20;;;;;;101922.58;;;;106458;1298;66534;-34
2022/01/13 02:22:43;;;;;;;16.50;10.10;;;;;;101907.30;;;;106464;1298;62561;-36
2022/01/13 02:25:16;;;;;;;15.70;11.00;;;;;;101904.79;;;;106458;1300;62526;-34
2022/01/13 02:27:43;;;;;;;17.20;11.30;;;;;;101914.46;;;;106354;1300;63525;-48
2022/01/13 02:30:14;;;;;;;15.00;10.70;;;;;;101916.68;;;;106453;1299;62539;-49
2022/01/13 02:32:41;;;;;;;16.10;11.50;;;;;;101920.15;;;;106486;1299;65971;-48
2022/01/13 02:35:08;;;;;;;17.70;11.60;;;;;;101919.55;;;;106465;1298;62701;-48
2022/01/13 02:37:36;;;;;;;16.80;11.00;;;;;;101921.30;;;;106477;1300;62548;-34
2022/01/13 02:40:04;;;;;;;15.10;10.50;;;;;;101925.75;;;;106425;1299;62626;-37
2022/01/13 02:42:32;;;;;;;16.00;10.50;;;;;;101921.48;;;;106499;1299;62588;-37
2022/01/13 02:45:14;;;;;;;15.20;10.70;;;;;;101923.15;;;;106468;1298;66001;-36
2022/01/13 02:48:00;;;;;;;16.40;10.10;;;;;;101924.33;;;;106440;1299;62677;-35
2022/01/13 02:50:28;;;;;;;15.00;11.00;;;;;;101926.13;;;;106446;1299;62691;-35
2022/01/13 02:52:55;;;;;;;15.20;10.20;;;;;;101928.45;;;;106447;1299;62665;-48
2022/01/13 02:55:23;;;;;;;17.30;11.10;;;;;;101916.59;;;;106465;1298;62590;-48
2022/01/13 02:57:50;;;;;;;16.40;10.80;;;;;;101904.91;;;;106455;1298;64766;-48
2022/01/13 03:00:18;;;;;;;14.70;10.10;;;;;;101894.38;;;;106441;1299;62758;-48
2022/01/13 03:02:47;;;;;;;15.80;10.70;;;;;;101891.88;;;;106439;1299;62525;-51
2022/01/13 03:05:16;;;;;;;15.20;10.20;;;;;;101885.66;;;;106467;1298;62692;-48
2022/01/13 03:07:43;;;;;;;13.90;10.00;;;;;;101877.73;;;;106473;1300;62637;-48
2022/01/13 03:10:12;;;;;;;15.00;9.40;;;;;;101882.39;;;;106481;1298;65957;-48
2022/01/13 03:12:44;;;;;;;15.30;9.20;;;;;;101877.88;;;;106316;1300;62551;-48
2022/01/13 03:15:14;;;;;;;16.00;10.60;;;;;;101874.27;;;;106487;1299;62562;-48
2022/01/13 03:17:43;;;;;;;15.20;9.50;;;;;;101864.91;;;;106491;1298;62710;-36
2022/01/13 03:20:11;;;;;;;16.50;10.00;;;;;;101865.30;;;;106481;1300;62560;-36
2022/01/13 03:22:39;;;;;;;13.40;9.30;;;;;;101859.77;;;;106487;1298;64685;-48
2022/01/13 03:25:06;;;;;;;16.10;10.40;;;;;;101845.41;;;;106484;1298;62589;-48
2022/01/13 03:27:34;;;;;;;16.50;10.90;;;;;;101840.25;;;;106432;1299;62667;-48
2022/01/13 03:30:07;;;;;;;15.10;10.40;;;;;;101840.77;;;;106472;1299;62524;-48
2022/01/13 03:32:36;;;;;;;16.00;10.50;;;;;;101847.34;;;;106490;1299;62611;-37
2022/01/13 03:35:05;;;;;;;14.60;9.80;;;;;;101850.27;;;;106456;1298;66734;-36
2022/01/13 03:37:33;;;;;;;14.20;9.60;;;;;;101843.48;;;;106447;1299;62688;-43
2022/01/13 03:40:04;;;;;;;13.70;9.60;;;;;;101840.35;;;;106452;1300;62631;-41
2022/01/13 03:42:31;;;;;;;13.40;9.10;;;;;;101831.08;;;;106479;1299;62624;-41
2022/01/13 03:45:00;;;;;;;15.00;9.50;;;;;;101824.05;;;;106497;1300;62568;-42
2022/01/13 03:47:30;;;;;;;13.30;8.80;;;;;;101813.73;;;;106519;1298;65289;-31
2022/01/13 03:49:57;;;;;;;13.90;10.60;;;;;;101802.56;;;;106465;1299;62689;-31
2022/01/13 03:52:24;;;;;;;13.40;9.40;;;;;;101793.50;;;;106468;1300;62579;-31
2022/01/13 03:55:13;;;;;;;14.70;9.10;;;;;;101794.61;;;;106473;1299;62636;-31
2022/01/13 03:58:33;;;;;;;13.50;9.20;;;;;;101793.69;;;;106502;1299;62540;-42
2022/01/13 04:01:28;;;;;;;13.10;9.30;;;;;;101794.53;;;;106487;1298;68208;-44
2022/01/13 04:03:55;;;;;;;13.40;9.10;;;;;;101789.00;;;;106439;1299;62621;-31
2022/01/13 04:06:34;;;;;;;14.50;8.70;;;;;;101788.95;;;;106469;1298;62617;-39
2022/01/13 04:09:07;;;;;;;13.60;9.00;;;;;;101780.64;;;;106455;1298;62472;-32
2022/01/13 04:11:39;;;;;;;13.50;9.40;;;;;;101782.61;;;;106497;1300;62566;-42
2022/01/13 04:14:06;;;;;;;12.90;8.30;;;;;;101783.30;;;;106457;1300;67308;-41
2022/01/13 04:16:36;;;;;;;13.90;8.70;;;;;;101774.38;;;;106443;1300;62797;-40
2022/01/13 04:19:06;;;;;;;12.40;8.30;;;;;;101770.80;;;;106447;1298;62703;-41
2022/01/13 04:21:38;;;;;;;12.40;8.00;;;;;;101754.75;;;;106414;1299;62674;-41
2022/01/13 04:24:11;;;;;;;12.20;8.20;;;;;;101745.23;;;;106487;1299;62533;-41
2022/01/13 04:26:42;;;;;;;12.00;8.00;;;;;;101734.64;;;;106474;1299;66183;-42
2022/01/13 04:31:40;;;;;;;12.00;7.80;;;;;;101729.54;;;;106439;1299;62504;-32
2022/01/13 04:34:11;;;;;;;12.70;8.20;;;;;;101725.52;;;;106419;1300;62712;-32
2022/01/13 04:36:38;;;;;;;12.80;8.00;;;;;;101735.09;;;;106503;1299;62624;-37
2022/01/13 04:39:08;;;;;;;13.50;8.00;;;;;;101737.95;;;;106471;1299;64898;-37
2022/01/13 04:41:37;;;;;;;11.60;7.60;;;;;;101732.45;;;;106450;1298;62811;-49
2022/01/13 04:44:10;;;;;;;10.50;7.50;;;;;;101739.34;;;;106488;1300;62684;-49
2022/01/13 04:46:38;;;;;;;11.80;7.90;;;;;;101747.36;;;;106466;1299;62726;-49
2022/01/13 04:49:07;;;;;;;11.60;7.60;;;;;;101751.89;;;;106430;1299;62683;-49
2022/01/13 04:51:35;;;;;;;11.90;7.20;;;;;;101745.53;;;;106473;1299;65975;-49
2022/01/13 04:54:03;;;;;;;12.60;7.80;;;;;;101745.18;;;;106460;1300;62704;-44
2022/01/13 04:59:11;;;;;;;11.50;7.40;;;;;;101728.56;;;;106470;1299;62611;-46
2022/01/13 05:01:38;;;;;;;11.00;7.10;;;;;;101712.95;;;;106510;1300;62661;-32
2022/01/13 05:04:07;;;;;;;11.00;6.90;;;;;;101702.02;;;;106499;1299;64936;-32
2022/01/13 05:06:34;;;;;;;10.30;6.40;;;;;;101699.56;;;;106412;1298;62708;-32
2022/01/13 05:09:03;;;;;;;11.30;7.20;;;;;;101700.54;;;;106495;1300;62561;-32
2022/01/13 05:11:30;;;;;;;10.70;6.60;;;;;;101706.91;;;;106489;1300;62648;-32
2022/01/13 05:13:57;;;;;;;11.40;6.80;;;;;;101715.06;;;;106480;1300;62623;-32
2022/01/13 05:16:32;;;;;;;11.90;7.20;;;;;;101722.33;;;;106499;1299;66084;-32
2022/01/13 05:24:16;;;;;;;10.90;6.70;;;;;;101723.99;;;;106509;1300;62612;-32
2022/01/13 05:26:43;;;;;;;10.80;6.20;;;;;;101724.69;;;;106530;1298;63036;-32
2022/01/13 05:29:16;;;;;;;9.90;6.20;;;;;;101724.51;;;;106487;1298;66155;-32
2022/01/13 05:31:43;;;;;;;9.80;6.00;;;;;;101705.36;;;;106472;1300;62737;-44
2022/01/13 05:34:10;;;;;;;9.50;6.30;;;;;;101704.58;;;;106484;1300;62640;-43
2022/01/13 05:36:37;;;;;;;8.90;5.70;;;;;;101709.90;;;;106447;1299;62581;-42
2022/01/13 05:39:05;;;;;;;9.10;5.60;;;;;;101697.98;;;;106498;1298;62535;-46
2022/01/13 05:41:33;;;;;;;9.70;5.70;;;;;;101688.45;;;;106498;1299;66510;-32
2022/01/13 05:44:01;;;;;;;8.80;5.70;;;;;;101676.17;;;;106444;1300;62837;-32
2022/01/13 05:46:28;;;;;;;8.90;5.10;;;;;;101682.16;;;;106493;1299;62610;-32
2022/01/13 05:48:56;;;;;;;8.80;5.40;;;;;;101680.95;;;;106474;1300;62609;-32
2022/01/13 05:51:26;;;;;;;9.80;6.30;;;;;;101675.42;;;;106444;1299;62553;-36
2022/01/13 05:53:54;;;;;;;8.90;5.30;;;;;;101670.64;;;;106489;1300;66201;-32
2022/01/13 05:56:21;;;;;;;8.40;5.40;;;;;;101669.45;;;;106447;1298;62542;-32
2022/01/13 05:58:48;;;;;;;10.10;5.60;;;;;;101656.57;;;;106452;1299;62614;-43
2022/01/13 06:01:15;;;;;;;8.30;5.20;;;;;;101654.03;;;;106490;1299;62723;-43
2022/01/13 06:03:43;;;;;;;7.90;5.10;;;;;;101655.23;;;;106534;1300;62633;-42
2022/01/13 06:06:10;;;;;;;7.80;4.80;;;;;;101648.91;;;;106447;1298;64938;-43
2022/01/13 06:08:37;;;;;;;7.40;5.40;;;;;;101652.77;;;;106451;1299;62650;-43
2022/01/13 06:11:04;;;;;;;9.40;5.10;;;;;;101644.42;;;;106459;1298;62637;-44
2022/01/13 06:13:31;;;;;;;9.10;5.30;;;;;;101656.18;;;;106509;1299;62680;-35
2022/01/13 06:15:58;;;;;;;7.90;5.10;;;;;;101652.39;;;;106507;1299;62539;-36
2022/01/13 06:18:25;;;;;;;9.10;5.00;;;;;;101649.64;;;;106511;1298;66229;-36
2022/01/13 06:20:53;;;;;;;9.10;4.80;;;;;;101648.11;;;;106446;1299;62575;-34
2022/01/13 06:23:20;;;;;;;7.90;4.80;;;;;;101641.67;;;;106466;1299;62645;-42
2022/01/13 06:25:47;;;;;;;8.80;4.70;;;;;;101624.45;;;;106471;1299;62651;-35
2022/01/13 06:28:17;;;;;;;7.70;4.80;;;;;;101613.94;;;;106504;1298;62517;-38
2022/01/13 06:30:45;;;;;;;7.30;4.50;;;;;;101595.55;;;;106473;1299;66138;-37
2022/01/13 06:33:15;;;;;;;7.60;4.60;;;;;;101584.67;;;;106398;1299;62660;-34
2022/01/13 06:35:43;;;;;;;7.50;4.40;;;;;;101574.77;;;;106481;1300;63068;-37
2022/01/13 06:38:10;;;;;;;7.30;3.90;;;;;;101565.73;;;;106458;1299;62553;-49
2022/01/13 06:40:37;;;;;;;8.50;4.70;;;;;;101567.58;;;;106496;1299;62554;-48
2022/01/13 06:43:04;;;;;;;7.00;4.20;;;;;;101554.77;;;;106517;1299;65742;-43
2022/01/13 06:45:32;;;;;;;7.20;4.40;;;;;;101553.14;;;;106492;1299;62730;-44
2022/01/13 06:47:59;;;;;;;7.60;4.00;;;;;;101560.68;;;;106469;1300;62912;-44
2022/01/13 06:50:27;;;;;;;7.80;3.80;;;;;;101570.20;;;;106433;1298;62606;-43
2022/01/13 06:52:54;;;;;;;8.70;4.50;;;;;;101571.84;;;;106499;1300;62631;-33
2022/01/13 06:55:23;;;;;;;6.50;4.20;;;;;;101567.83;;;;106463;1299;64490;-36
2022/01/13 06:57:50;;;;;;;7.90;4.00;;;;;;101590.11;;;;106426;1299;62959;-41
2022/01/13 07:00:22;;;;;;;7.90;4.00;;;;;;101602.23;;;;106469;1299;62614;-42
2022/01/13 07:02:51;;;;;;;6.40;3.60;;;;;;101613.91;;;;106433;1299;62617;-31
2022/01/13 07:05:18;;;;;;;7.40;3.60;;;;;;101600.06;;;;106513;1298;62556;-36
2022/01/13 07:07:46;;;;;;;6.10;3.50;;;;;;101595.52;;;;106424;1299;66578;-48
2022/01/13 07:10:13;;;;;;;6.60;3.60;;;;;;101604.13;;;;106490;1298;62593;-48
2022/01/13 07:12:41;;;;;;;7.60;3.70;;;;;;101610.54;;;;106506;1299;62563;-49
2022/01/13 07:15:11;;;;;;;6.80;3.70;;;;;;101610.14;;;;106424;1299;62664;-49
2022/01/13 07:17:39;;;;;;;5.60;3.10;;;;;;101608.60;;;;106514;1300;62548;-36
2022/01/13 07:20:08;;;;;;;6.30;3.80;;;;;;101600.73;;;;106498;1298;64692;-34
2022/01/13 07:22:37;;;;;;;6.40;3.50;;;;;;101594.95;;;;106469;1299;62721;-51
2022/01/13 07:25:06;;;;;;;6.50;3.80;;;;;;101603.20;;;;106496;1300;62645;-51
2022/01/13 07:27:34;;;;;;;5.80;3.80;;;;;;101590.96;;;;106499;1299;62522;-48
2022/01/13 07:30:01;;;;;;;6.20;3.50;;;;;;101590.48;;;;106532;1300;62654;-48
2022/01/13 07:32:28;;;;;;;6.60;3.00;;;;;;101583.92;;;;106501;1299;66513;-49
2022/01/13 07:34:55;;;;;;;6.20;3.40;;;;;;101580.52;;;;106494;1298;62638;-53
2022/01/13 07:37:24;;;;;;;6.40;3.30;;;;;;101591.60;;;;106473;1297;62563;-42
2022/01/13 07:39:51;;;;;;;5.40;3.10;;;;;;101602.02;;;;106453;1299;62531;-38
2022/01/13 07:42:18;;;;;;;6.20;3.40;;;;;;101601.65;;;;106590;1297;62612;-36
2022/01/13 07:44:45;;;;;;;6.20;3.40;;;;;;101600.45;;;;106570;1297;66001;-35
2022/01/13 07:47:13;;;;;;;5.70;3.40;;;;;;101616.48;;;;106535;1297;62582;-48
2022/01/13 07:49:40;;;;;;;6.90;3.70;;;;;;101622.65;;;;106579;1297;62678;-45
2022/01/13 07:52:07;;;;;;;5.80;3.20;;;;;;101619.88;;;;106565;1297;62574;-41
2022/01/13 07:54:34;;;;;;;5.50;3.20;;;;;;101625.20;;;;106583;1297;62541;-41
2022/01/13 07:57:02;;;;;;;7.20;3.20;;;;;;101612.91;;;;106593;1297;66094;-31
2022/01/13 07:59:29;;;;;;;7.10;4.00;;;;;;101604.52;;;;106534;1297;62748;-32
2022/01/13 08:01:58;;;;;;;6.20;3.30;;;;;;101597.68;;;;106566;1296;62638;-41
2022/01/13 08:04:26;;;;;;;6.70;3.40;;;;;;101593.67;;;;106413;1297;62719;-43
2022/01/13 08:06:53;;;;;;;7.00;3.40;;;;;;101594.38;;;;106579;1297;63205;-32
2022/01/13 08:09:20;;;;;;;6.40;3.70;;;;;;101601.27;;;;106563;1297;66188;-42
2022/01/13 08:11:47;;;;;;;5.80;3.50;;;;;;101608.87;;;;106518;1297;62725;-36
2022/01/13 08:14:14;;;;;;;7.40;3.80;;;;;;101608.65;;;;106562;1297;62628;-42
2022/01/13 08:16:44;;;;;;;6.80;3.60;;;;;;101608.64;;;;106576;1296;62646;-43
2022/01/13 08:21:57;;;;;;;6.50;3.60;;;;;;101598.60;;;;106564;1296;66428;-42
2022/01/13 08:24:25;;;;;;;6.00;3.30;;;;;;101597.86;;;;106533;1297;62683;-37
2022/01/13 08:26:52;;;;;;;6.10;3.80;;;;;;101596.89;;;;106549;1297;62692;-33
2022/01/13 08:29:19;;;;;;;6.50;3.70;;;;;;101594.86;;;;106524;1296;62669;-33
2022/01/13 08:31:46;;;;;;;6.80;3.80;;;;;;101593.98;;;;106588;1297;62770;-34
2022/01/13 08:34:15;;;;;;;7.10;3.70;;;;;;101602.19;;;;106554;1297;66562;-33
2022/01/13 08:36:44;;;;;;;6.20;3.50;;;;;;101608.91;;;;106567;1297;62633;-53
2022/01/13 08:39:11;;;;;;;6.00;3.50;;;;;;101617.77;;;;106441;1297;62611;-47
2022/01/13 08:41:40;;;;;;;6.20;3.40;;;;;;101620.31;;;;106576;1297;62645;-40
2022/01/13 08:44:09;;;;;;;5.50;3.20;;;;;;101621.52;;;;106443;1299;62632;-39
2022/01/13 08:46:36;;;;;;;7.20;3.50;;;;;;101619.41;;;;106590;1296;65274;-38
2022/01/13 08:49:04;;;;;;;5.40;3.00;;;;;;101610.08;;;;106561;1296;62669;-50
2022/01/13 08:51:32;;;;;;;6.70;3.60;;;;;;101608.88;;;;106532;1296;62482;-41
2022/01/13 08:53:59;;;;;;;5.70;3.50;;;;;;101595.73;;;;106446;1297;62620;-40
2022/01/13 08:56:26;;;;;;;6.30;3.50;;;;;;101589.33;;;;106529;1297;62764;-38
2022/01/13 08:58:54;;;;;;;5.90;3.20;;;;;;101578.15;;;;106580;1296;64482;-46
2022/01/13 09:01:22;;;;;;;6.00;3.70;;;;;;101569.65;;;;106546;1297;62741;-43
2022/01/13 09:03:49;;;;;;;5.80;3.50;;;;;;101567.14;;;;106195;1298;281149;-39
2022/01/13 09:06:16;;;;;;;5.80;3.20;;;;;;101571.52;;;;106424;1299;62740;-35
2022/01/13 09:08:43;;;;;;;5.40;3.30;;;;;;101569.00;;;;106468;1297;62591;-46
2022/01/13 09:11:11;;;;;;;6.00;3.30;;;;;;101569.85;;;;106577;1297;64903;-47
2022/01/13 09:13:38;;;;;;;6.40;3.70;;;;;;101575.60;;;;106431;1297;62752;-49
2022/01/13 09:16:14;;;;;;;6.00;3.30;;;;;;101581.75;;;;106535;1296;62641;-46
2022/01/13 09:18:59;;;;;;;6.10;3.40;;;;;;101579.95;;;;106546;1297;62511;-36
2022/01/13 09:21:28;;;;;;;5.70;3.60;;;;;;101580.23;;;;106482;1297;62573;-45
2022/01/13 09:23:56;;;;;;;6.30;3.50;;;;;;101580.30;;;;106515;1297;66449;-46
2022/01/13 09:26:24;;;;;;;6.00;3.50;;;;;;101587.30;;;;106545;1297;62565;-43
2022/01/13 09:28:52;;;;;;;6.00;3.50;;;;;;101577.16;;;;106530;1296;62565;-32
2022/01/13 09:31:19;;;;;;;6.10;3.50;;;;;;101581.80;;;;106556;1296;62615;-40
2022/01/13 09:33:47;;;;;;;6.50;3.90;;;;;;101585.02;;;;106584;1297;63175;-32
2022/01/13 09:36:15;;;;;;;5.60;3.50;;;;;;101576.45;;;;106560;1297;64788;-37
2022/01/13 09:38:42;;;;;;;5.40;3.40;;;;;;101569.48;;;;106548;1297;62753;-56
2022/01/13 09:41:10;;;;;;;5.80;3.60;;;;;;101555.27;;;;106565;1297;62557;-58
2022/01/13 09:43:37;;;;;;;5.90;3.50;;;;;;101546.05;;;;106434;1297;62658;-32
2022/01/13 09:46:05;;;;;;;6.70;3.90;;;;;;101544.09;;;;106587;1296;62524;-31
2022/01/13 09:48:32;;;;;;;6.00;3.50;;;;;;101534.23;;;;106589;1296;64934;-32
2022/01/13 09:50:59;;;;;;;6.60;3.60;;;;;;101536.70;;;;106552;1297;62585;-36
2022/01/13 09:53:27;;;;;;;6.00;3.60;;;;;;101523.16;;;;106541;1297;62653;-39
2022/01/13 09:55:54;;;;;;;6.00;3.50;;;;;;101522.20;;;;106521;1296;62695;-56
2022/01/13 09:58:21;;;;;;;6.30;3.60;;;;;;101514.85;;;;106574;1296;62566;-58
2022/01/13 10:00:48;;;;;;;5.90;3.60;;;;;;101518.11;;;;106456;1297;64927;-57
2022/01/13 10:03:26;;;;;;;5.90;3.30;;;;;;101507.40;;;;106579;1297;62603;-45
2022/01/13 10:05:56;;;;;;;5.60;3.40;;;;;;101510.65;;;;106423;1299;62510;-41
2022/01/13 10:08:46;;;;;;;6.00;3.60;;;;;;101508.39;;;;106495;1298;62687;-42
2022/01/13 10:11:45;;;;;;;5.70;3.10;;;;;;101519.21;;;;106530;1299;62539;-42
2022/01/13 10:17:05;;;;;;;5.30;3.70;;;;;;101494.13;;;;106533;1299;62543;-32
2022/01/13 10:19:42;;;;;;;5.80;3.30;;;;;;101497.73;;;;106522;1300;62599;-32
2022/01/13 10:22:33;;;;;;;5.40;3.20;;;;;;101498.79;;;;106344;1297;62665;-43
2022/01/13 10:25:00;;;;;;;5.50;3.00;;;;;;101493.69;;;;106453;1299;62585;-45
2022/01/13 10:27:35;;;;;;;5.40;3.30;;;;;;101485.82;;;;106422;1299;67486;-32
2022/01/13 10:30:14;;;;;;;6.20;3.20;;;;;;101487.40;;;;106422;1299;62806;-32
2022/01/13 10:32:43;;;;;;;5.60;3.20;;;;;;101491.72;;;;106426;1298;62544;-45
2022/01/13 10:35:21;;;;;;;6.60;3.50;;;;;;101485.73;;;;106420;1299;62679;-46
2022/01/13 10:37:58;;;;;;;6.10;3.80;;;;;;101487.73;;;;106435;1299;62536;-33
2022/01/13 10:40:38;;;;;;;5.70;3.20;;;;;;101489.02;;;;106424;1299;67356;-33
2022/01/13 10:43:08;;;;;;;8.70;3.60;;;;;;101475.14;;;;106346;1299;62621;-45
2022/01/13 10:45:47;;;;;;;5.90;3.40;;;;;;101474.67;;;;106431;1299;62541;-46
2022/01/13 10:48:21;;;;;;;6.10;3.60;;;;;;101480.03;;;;106421;1299;63221;-43
2022/01/13 10:51:05;;;;;;;7.50;3.70;;;;;;101479.11;;;;106465;1299;62531;-37
2022/01/13 10:53:44;;;;;;;6.10;3.70;;;;;;101478.19;;;;106453;1299;66437;-36
2022/01/13 10:56:14;;;;;;;5.90;3.60;;;;;;101484.53;;;;106400;1299;62555;-44
2022/01/13 10:58:50;;;;;;;6.40;3.90;;;;;;101479.11;;;;106425;1299;62545;-51
2022/01/13 11:01:18;;;;;;;7.20;3.70;;;;;;101473.40;;;;106406;1299;62571;-52
2022/01/13 11:03:47;;;;;;;6.30;3.90;;;;;;101464.92;;;;106456;1300;62549;-42
2022/01/13 11:06:15;;;;;;;7.00;3.90;;;;;;101452.23;;;;106443;1297;65304;-43
2022/01/13 11:08:45;;;;;;;6.80;3.70;;;;;;101441.11;;;;106551;1297;62708;-33
2022/01/13 11:11:22;;;;;;;6.50;4.10;;;;;;101442.95;;;;106446;1297;62697;-47
2022/01/13 11:13:59;;;;;;;6.70;3.60;;;;;;101428.49;;;;106516;1297;63088;-49
2022/01/13 11:16:29;;;;;;;7.10;3.90;;;;;;101430.65;;;;106428;1299;62594;-32
2022/01/13 11:18:57;;;;;;;6.80;3.80;;;;;;101420.08;;;;106512;1298;66213;-46
2022/01/13 11:21:26;;;;;;;6.30;3.70;;;;;;101416.55;;;;106448;1297;62696;-40
2022/01/13 11:23:55;;;;;;;6.80;3.70;;;;;;101410.83;;;;106544;1297;62622;-34
2022/01/13 11:26:27;;;;;;;6.20;3.70;;;;;;101406.83;;;;106477;1296;62689;-34
2022/01/13 11:28:56;;;;;;;6.20;3.80;;;;;;101395.15;;;;106521;1298;62506;-45
2022/01/13 11:31:23;;;;;;;6.10;3.30;;;;;;101394.90;;;;106514;1297;64704;-36
2022/01/13 11:33:51;;;;;;;6.40;4.00;;;;;;101387.02;;;;106432;1297;62578;-33
2022/01/13 11:36:19;;;;;;;6.30;3.20;;;;;;101379.08;;;;106583;1297;62518;-37
2022/01/13 11:38:57;;;;;;;6.30;3.50;;;;;;101381.59;;;;106534;1296;62572;-45
2022/01/13 11:41:25;;;;;;;6.00;3.40;;;;;;101387.98;;;;106579;1296;62631;-44
2022/01/13 11:43:52;;;;;;;6.00;3.40;;;;;;101388.51;;;;106571;1297;64957;-32
2022/01/13 11:46:23;;;;;;;7.60;3.40;;;;;;101385.97;;;;106547;1295;62764;-39
2022/01/13 11:48:53;;;;;;;6.80;3.80;;;;;;101385.21;;;;106485;1299;62587;-39
2022/01/13 11:51:21;;;;;;;6.40;3.80;;;;;;101385.67;;;;106502;1299;62693;-39
2022/01/13 11:53:55;;;;;;;6.10;3.60;;;;;;101383.06;;;;106531;1298;62597;-47
2022/01/13 11:56:23;;;;;;;6.70;3.60;;;;;;101383.98;;;;106505;1297;65959;-44
2022/01/13 11:58:50;;;;;;;7.70;3.70;;;;;;101382.05;;;;106576;1297;63106;-38
2022/01/13 12:01:36;;;;;;;5.20;2.90;;;;;;101376.66;;;;106570;1297;62558;-34
2022/01/13 12:04:06;;;;;;;5.70;3.40;;;;;;101373.28;;;;106524;1297;62685;-47
2022/01/13 12:06:44;;;;;;;6.40;3.60;;;;;;101364.36;;;;106449;1299;62638;-34
2022/01/13 12:09:32;;;;;;;7.80;3.30;;;;;;101363.71;;;;106432;1299;67316;-34
2022/01/13 12:12:00;;;;;;;5.80;3.20;;;;;;101362.38;;;;106461;1297;62720;-44
2022/01/13 12:14:30;;;;;;;5.40;3.30;;;;;;101358.88;;;;106476;1299;62625;-43
2022/01/13 12:17:23;;;;;;;5.90;3.30;;;;;;101353.11;;;;106483;1300;62674;-43
2022/01/13 12:19:51;;;;;;;5.80;3.40;;;;;;101353.09;;;;106489;1299;62548;-44
2022/01/13 12:22:32;;;;;;;5.40;3.30;;;;;;101354.30;;;;106512;1298;66163;-43
2022/01/13 12:25:02;;;;;;;6.40;3.20;;;;;;101342.08;;;;106471;1299;62579;-43
2022/01/13 12:27:38;;;;;;;5.90;3.30;;;;;;101329.44;;;;106409;1299;62662;-34
2022/01/13 12:30:19;;;;;;;6.40;3.30;;;;;;101315.39;;;;106468;1300;62885;-34
2022/01/13 12:32:50;;;;;;;5.70;3.40;;;;;;101316.15;;;;106453;1299;62618;-43
2022/01/13 12:35:38;;;;;;;6.20;3.30;;;;;;101315.14;;;;106483;1299;67428;-46
2022/01/13 12:38:15;;;;;;;5.40;3.10;;;;;;101314.41;;;;106465;1299;62606;-34
2022/01/13 12:41:00;;;;;;;5.70;3.40;;;;;;101311.83;;;;106489;1299;62505;-34
2022/01/13 12:44:20;;;;;;;8.40;4.00;;;;;;101316.46;;;;106453;1299;62621;-39
2022/01/13 12:46:28;;;;;;;6.20;3.60;;;;;;101315.40;;;;106416;1297;63767;-59
2022/01/13 12:48:56;;;;;;;6.70;3.30;;;;;;101311.32;;;;106469;1297;66441;-52
2022/01/13 12:51:27;;;;;;;5.80;3.50;;;;;;101316.11;;;;106553;1296;62978;-37
2022/01/13 12:53:55;;;;;;;5.50;3.40;;;;;;101312.61;;;;106555;1297;62587;-40
2022/01/13 12:56:25;;;;;;;5.50;3.10;;;;;;101317.63;;;;106573;1297;63342;-40
2022/01/13 12:59:01;;;;;;;5.30;3.10;;;;;;101321.50;;;;106554;1297;62589;-40
2022/01/13 13:01:31;;;;;;;6.50;3.20;;;;;;101331.23;;;;106427;1297;68411;-46
2022/01/13 13:04:02;;;;;;;5.30;3.10;;;;;;101342.70;;;;106518;1297;62651;-39
2022/01/13 13:06:32;;;;;;;6.40;3.60;;;;;;101351.49;;;;106549;1297;62699;-32
2022/01/13 13:09:09;;;;;;;6.30;3.20;;;;;;101355.27;;;;106542;1296;62616;-32
2022/01/13 13:11:45;;;;;;;6.60;3.50;;;;;;101354.34;;;;106580;1296;62621;-42
2022/01/13 13:14:22;;;;;;;6.10;3.40;;;;;;101354.95;;;;106577;1297;67448;-41
2022/01/13 13:16:51;;;;;;;6.50;3.10;;;;;;101349.23;;;;106423;1299;63047;-41
2022/01/13 13:19:19;;;;;;;6.10;3.70;;;;;;101350.61;;;;106559;1297;62604;-36
2022/01/13 13:21:51;;;;;;;6.00;3.50;;;;;;101357.40;;;;106568;1297;63038;-32